sensor_id;sensor_type;location;lat;lon;timestamp;pressure;altitude;pressure_sealevel;temperature;humidity
39129;BME280;24864;49.940;19.770;2022-10-22T00:01:02;97927.22;;;7.75;100.00
39129;BME280;24864;49.940;19.770;2022-10-22T00:03:39;97926.88;;;7.76;100.00
39129;BME280;24864;49.940;19.770;2022-10-22T00:06:07;97922.22;;;7.77;100.00
39129;BME280;24864;49.940;19.770;2022-10-22T00:08:35;97913.78;;;7.78;100.00
39129;BME280;24864;49.940;19.770;2022-10-22T00:11:12;97922.72;;;7.79;100.00
39129;BME280;24864;49.940;19.770;2022-10-22T00:13:41;97918.41;;;7.78;100.00
39129;BME280;24864;49.940;19.770;2022-10-22T00:16:09;97912.97;;;7.78;100.00
39129;BME280;24864;49.940;19.770;2022-10-22T00:18:38;97905.03;;;7.72;100.00
39129;BME280;24864;49.940;19.770;2022-10-22T00:21:06;97907.59;;;7.69;100.00
39129;BME280;24864;49.940;19.770;2022-10-22T00:23:34;97900.66;;;7.59;100.00
39129;BME280;24864;49.940;19.770;2022-10-22T00:26:02;97897.22;;;7.50;100.00
39129;BME280;24864;49.940;19.770;2022-10-22T00:28:31;97900.44;;;7.43;100.00
39129;BME280;24864;49.940;19.770;2022-10-22T00:31:00;97909.25;;;7.40;100.00
39129;BME280;24864;49.940;19.770;2022-10-22T00:33:29;97904.47;;;7.37;100.00
39129;BME280;24864;49.940;19.770;2022-10-22T00:35:57;97897.31;;;7.32;100.00
39129;BME280;24864;49.940;19.770;2022-10-22T00:38:25;97902.28;;;7.30;100.00
39129;BME280;24864;49.940;19.770;2022-10-22T00:40:53;97906.59;;;7.31;100.00
39129;BME280;24864;49.940;19.770;2022-10-22T00:43:21;97903.22;;;7.34;100.00
39129;BME280;24864;49.940;19.770;2022-10-22T00:45:50;97909.13;;;7.36;100.00
39129;BME280;24864;49.940;19.770;2022-10-22T00:48:23;97893.28;;;7.38;100.00
39129;BME280;24864;49.940;19.770;2022-10-22T00:50:54;97892.31;;;7.43;100.00
39129;BME280;24864;49.940;19.770;2022-10-22T00:53:25;97895.75;;;7.31;100.00
39129;BME280;24864;49.940;19.770;2022-10-22T00:55:56;97905.00;;;7.30;100.00
39129;BME280;24864;49.940;19.770;2022-10-22T00:58:26;97903.22;;;7.34;100.00
39129;BME280;24864;49.940;19.770;2022-10-22T01:00:56;97900.84;;;7.33;100.00
39129;BME280;24864;49.940;19.770;2022-10-22T01:03:24;97900.22;;;7.27;100.00
39129;BME280;24864;49.940;19.770;2022-10-22T01:05:55;97902.34;;;7.21;100.00
39129;BME280;24864;49.940;19.770;2022-10-22T01:08:27;97886.38;;;7.20;100.00
39129;BME280;24864;49.940;19.770;2022-10-22T01:11:07;97889.91;;;7.20;100.00
39129;BME280;24864;49.940;19.770;2022-10-22T01:13:47;97897.91;;;7.17;100.00
39129;BME280;24864;49.940;19.770;2022-10-22T01:16:22;97894.38;;;7.16;100.00
39129;BME280;24864;49.940;19.770;2022-10-22T01:19:02;97894.09;;;7.09;100.00
39129;BME280;24864;49.940;19.770;2022-10-22T01:21:41;97889.38;;;6.97;100.00
39129;BME280;24864;49.940;19.770;2022-10-22T01:24:22;97882.84;;;6.98;100.00
39129;BME280;24864;49.940;19.770;2022-10-22T01:27:00;97888.25;;;6.98;100.00
39129;BME280;24864;49.940;19.770;2022-10-22T01:29:36;97895.91;;;6.96;100.00
39129;BME280;24864;49.940;19.770;2022-10-22T01:32:07;97886.00;;;7.00;100.00
39129;BME280;24864;49.940;19.770;2022-10-22T01:34:39;97895.38;;;7.03;100.00
39129;BME280;24864;49.940;19.770;2022-10-22T01:37:11;97892.53;;;6.99;100.00
39129;BME280;24864;49.940;19.770;2022-10-22T01:39:42;97887.97;;;6.91;100.00
39129;BME280;24864;49.940;19.770;2022-10-22T01:42:13;97886.09;;;6.83;100.00
39129;BME280;24864;49.940;19.770;2022-10-22T01:44:42;97876.25;;;6.69;100.00
39129;BME280;24864;49.940;19.770;2022-10-22T01:47:15;97871.31;;;6.71;100.00
39129;BME280;24864;49.940;19.770;2022-10-22T01:50:18;97863.72;;;6.56;100.00
39129;BME280;24864;49.940;19.770;2022-10-22T01:53:09;97865.19;;;6.45;100.00
39129;BME280;24864;49.940;19.770;2022-10-22T01:55:51;97866.78;;;6.46;100.00
39129;BME280;24864;49.940;19.770;2022-10-22T01:58:31;97863.25;;;6.45;100.00
39129;BME280;24864;49.940;19.770;2022-10-22T02:01:07;97862.97;;;6.47;100.00
39129;BME280;24864;49.940;19.770;2022-10-22T02:03:44;97851.13;;;6.51;100.00
39129;BME280;24864;49.940;19.770;2022-10-22T02:06:17;97861.00;;;6.56;100.00
39129;BME280;24864;49.940;19.770;2022-10-22T02:08:47;97864.19;;;6.58;100.00
39129;BME280;24864;49.940;19.770;2022-10-22T02:11:16;97852.69;;;6.61;100.00
39129;BME280;24864;49.940;19.770;2022-10-22T02:13:47;97852.53;;;6.66;100.00
39129;BME280;24864;49.940;19.770;2022-10-22T02:16:19;97860.00;;;6.69;100.00
39129;BME280;24864;49.940;19.770;2022-10-22T02:18:52;97847.56;;;6.68;100.00
39129;BME280;24864;49.940;19.770;2022-10-22T02:21:21;97851.84;;;6.69;100.00
39129;BME280;24864;49.940;19.770;2022-10-22T02:23:49;97864.16;;;6.67;100.00
39129;BME280;24864;49.940;19.770;2022-10-22T02:26:22;97862.88;;;6.64;100.00
39129;BME280;24864;49.940;19.770;2022-10-22T02:28:57;97864.47;;;6.65;100.00
39129;BME280;24864;49.940;19.770;2022-10-22T02:31:31;97852.69;;;6.61;100.00
39129;BME280;24864;49.940;19.770;2022-10-22T02:34:02;97864.94;;;6.67;100.00
39129;BME280;24864;49.940;19.770;2022-10-22T02:36:33;97860.81;;;6.61;100.00
39129;BME280;24864;49.940;19.770;2022-10-22T02:39:02;97875.50;;;6.60;100.00
39129;BME280;24864;49.940;19.770;2022-10-22T02:41:31;97878.56;;;6.50;100.00
39129;BME280;24864;49.940;19.770;2022-10-22T02:43:59;97867.91;;;6.45;100.00
39129;BME280;24864;49.940;19.770;2022-10-22T02:46:29;97859.63;;;6.41;100.00
39129;BME280;24864;49.940;19.770;2022-10-22T02:48:57;97865.00;;;6.50;100.00
39129;BME280;24864;49.940;19.770;2022-10-22T02:51:25;97858.84;;;6.32;100.00
39129;BME280;24864;49.940;19.770;2022-10-22T02:53:53;97855.38;;;6.14;100.00
39129;BME280;24864;49.940;19.770;2022-10-22T02:56:21;97852.03;;;6.17;100.00
39129;BME280;24864;49.940;19.770;2022-10-22T02:58:49;97856.38;;;6.00;100.00
39129;BME280;24864;49.940;19.770;2022-10-22T03:01:17;97856.19;;;5.88;100.00
39129;BME280;24864;49.940;19.770;2022-10-22T03:03:46;97860.34;;;5.76;100.00
39129;BME280;24864;49.940;19.770;2022-10-22T03:06:14;97860.47;;;5.80;100.00
39129;BME280;24864;49.940;19.770;2022-10-22T03:08:42;97867.31;;;5.77;100.00
39129;BME280;24864;49.940;19.770;2022-10-22T03:11:10;97870.03;;;5.77;100.00
39129;BME280;24864;49.940;19.770;2022-10-22T03:13:37;97867.97;;;5.83;100.00
39129;BME280;24864;49.940;19.770;2022-10-22T03:16:06;97878.31;;;5.90;100.00
39129;BME280;24864;49.940;19.770;2022-10-22T03:18:34;97875.44;;;5.95;100.00
39129;BME280;24864;49.940;19.770;2022-10-22T03:21:08;97878.63;;;5.97;100.00
39129;BME280;24864;49.940;19.770;2022-10-22T03:23:38;97874.63;;;5.94;100.00
39129;BME280;24864;49.940;19.770;2022-10-22T03:26:07;97871.81;;;6.08;100.00
39129;BME280;24864;49.940;19.770;2022-10-22T03:28:38;97867.31;;;6.21;100.00
39129;BME280;24864;49.940;19.770;2022-10-22T03:31:07;97877.34;;;6.21;100.00
39129;BME280;24864;49.940;19.770;2022-10-22T03:33:35;97873.06;;;5.85;100.00
39129;BME280;24864;49.940;19.770;2022-10-22T03:36:06;97876.09;;;5.74;100.00
39129;BME280;24864;49.940;19.770;2022-10-22T03:38:34;97864.00;;;5.63;100.00
39129;BME280;24864;49.940;19.770;2022-10-22T03:41:03;97870.84;;;5.78;100.00
39129;BME280;24864;49.940;19.770;2022-10-22T03:43:33;97858.88;;;5.61;100.00
39129;BME280;24864;49.940;19.770;2022-10-22T03:46:01;97867.81;;;5.62;100.00
39129;BME280;24864;49.940;19.770;2022-10-22T03:48:29;97867.00;;;5.61;100.00
39129;BME280;24864;49.940;19.770;2022-10-22T03:50:57;97872.91;;;5.55;100.00
39129;BME280;24864;49.940;19.770;2022-10-22T03:53:26;97861.75;;;5.65;100.00
39129;BME280;24864;49.940;19.770;2022-10-22T03:55:54;97842.50;;;5.58;100.00
39129;BME280;24864;49.940;19.770;2022-10-22T03:58:22;97838.53;;;5.55;100.00
39129;BME280;24864;49.940;19.770;2022-10-22T04:00:50;97841.06;;;5.52;100.00
39129;BME280;24864;49.940;19.770;2022-10-22T04:03:18;97857.00;;;5.44;100.00
39129;BME280;24864;49.940;19.770;2022-10-22T04:05:46;97853.66;;;5.47;100.00
39129;BME280;24864;49.940;19.770;2022-10-22T04:08:13;97839.00;;;5.57;100.00
39129;BME280;24864;49.940;19.770;2022-10-22T04:10:49;97829.59;;;5.72;100.00
39129;BME280;24864;49.940;19.770;2022-10-22T04:13:17;97834.06;;;5.68;100.00
39129;BME280;24864;49.940;19.770;2022-10-22T04:15:45;97831.22;;;5.56;100.00
39129;BME280;24864;49.940;19.770;2022-10-22T04:18:13;97830.56;;;5.59;100.00
39129;BME280;24864;49.940;19.770;2022-10-22T04:20:41;97831.69;;;5.58;100.00
39129;BME280;24864;49.940;19.770;2022-10-22T04:23:09;97836.31;;;5.49;100.00
39129;BME280;24864;49.940;19.770;2022-10-22T04:25:37;97832.94;;;5.43;100.00
39129;BME280;24864;49.940;19.770;2022-10-22T04:28:06;97838.53;;;5.46;100.00
39129;BME280;24864;49.940;19.770;2022-10-22T04:30:35;97840.13;;;5.47;100.00
39129;BME280;24864;49.940;19.770;2022-10-22T04:33:03;97833.59;;;5.40;100.00
39129;BME280;24864;49.940;19.770;2022-10-22T04:35:31;97829.13;;;5.35;100.00
39129;BME280;24864;49.940;19.770;2022-10-22T04:37:58;97824.50;;;5.27;100.00
39129;BME280;24864;49.940;19.770;2022-10-22T04:40:26;97793.66;;;5.10;100.00
39129;BME280;24864;49.940;19.770;2022-10-22T04:42:55;97835.16;;;5.32;100.00
39129;BME280;24864;49.940;19.770;2022-10-22T04:45:24;97832.16;;;5.25;100.00
39129;BME280;24864;49.940;19.770;2022-10-22T04:47:52;97835.00;;;5.20;100.00
39129;BME280;24864;49.940;19.770;2022-10-22T04:50:20;97845.81;;;5.20;100.00
39129;BME280;24864;49.940;19.770;2022-10-22T04:52:48;97841.69;;;5.22;100.00
39129;BME280;24864;49.940;19.770;2022-10-22T04:55:16;97845.19;;;5.23;100.00
39129;BME280;24864;49.940;19.770;2022-10-22T04:57:43;97843.59;;;5.22;100.00
39129;BME280;24864;49.940;19.770;2022-10-22T05:00:12;97850.28;;;5.15;100.00
39129;BME280;24864;49.940;19.770;2022-10-22T05:02:48;97859.31;;;5.11;100.00
39129;BME280;24864;49.940;19.770;2022-10-22T05:05:16;97857.88;;;5.13;100.00
39129;BME280;24864;49.940;19.770;2022-10-22T05:07:44;97870.63;;;5.22;100.00
39129;BME280;24864;49.940;19.770;2022-10-22T05:10:12;97867.78;;;5.27;100.00
39129;BME280;24864;49.940;19.770;2022-10-22T05:12:40;97850.28;;;5.15;100.00
39129;BME280;24864;49.940;19.770;2022-10-22T05:15:08;97863.78;;;5.24;100.00
39129;BME280;24864;49.940;19.770;2022-10-22T05:17:36;97865.56;;;5.29;100.00
39129;BME280;24864;49.940;19.770;2022-10-22T05:20:07;97865.41;;;5.25;100.00
39129;BME280;24864;49.940;19.770;2022-10-22T05:22:35;97859.66;;;5.36;100.00
39129;BME280;24864;49.940;19.770;2022-10-22T05:25:04;97842.00;;;5.38;100.00
39129;BME280;24864;49.940;19.770;2022-10-22T05:27:32;97824.22;;;5.37;100.00
39129;BME280;24864;49.940;19.770;2022-10-22T05:30:00;97827.72;;;5.46;100.00
39129;BME280;24864;49.940;19.770;2022-10-22T05:32:28;97833.72;;;5.26;100.00
39129;BME280;24864;49.940;19.770;2022-10-22T05:34:56;97833.88;;;5.21;100.00
39129;BME280;24864;49.940;19.770;2022-10-22T05:37:25;97836.91;;;5.28;100.00
39129;BME280;24864;49.940;19.770;2022-10-22T05:39:53;97835.03;;;5.37;100.00
39129;BME280;24864;49.940;19.770;2022-10-22T05:42:41;97840.56;;;5.32;100.00
39129;BME280;24864;49.940;19.770;2022-10-22T05:45:09;97849.34;;;5.29;100.00
39129;BME280;24864;49.940;19.770;2022-10-22T05:47:37;97867.44;;;5.20;100.00
39129;BME280;24864;49.940;19.770;2022-10-22T05:50:06;97863.63;;;5.21;100.00
39129;BME280;24864;49.940;19.770;2022-10-22T05:52:35;97858.88;;;5.35;100.00
39129;BME280;24864;49.940;19.770;2022-10-22T05:55:04;97849.00;;;5.22;100.00
39129;BME280;24864;49.940;19.770;2022-10-22T05:57:32;97843.75;;;5.08;100.00
39129;BME280;24864;49.940;19.770;2022-10-22T06:00:00;97837.34;;;5.04;100.00
39129;BME280;24864;49.940;19.770;2022-10-22T06:02:27;97840.53;;;4.97;100.00
39129;BME280;24864;49.940;19.770;2022-10-22T06:04:56;97849.78;;;5.13;100.00
39129;BME280;24864;49.940;19.770;2022-10-22T06:07:23;97857.56;;;5.06;100.00
39129;BME280;24864;49.940;19.770;2022-10-22T06:09:53;97860.22;;;4.97;100.00
39129;BME280;24864;49.940;19.770;2022-10-22T06:12:21;97856.75;;;4.97;100.00
39129;BME280;24864;49.940;19.770;2022-10-22T06:14:49;97861.69;;;5.12;100.00
39129;BME280;24864;49.940;19.770;2022-10-22T06:17:17;97869.88;;;5.30;100.00
39129;BME280;24864;49.940;19.770;2022-10-22T06:19:45;97872.91;;;5.55;100.00
39129;BME280;24864;49.940;19.770;2022-10-22T06:22:13;97879.59;;;5.66;100.00
39129;BME280;24864;49.940;19.770;2022-10-22T06:24:41;97868.78;;;5.92;100.00
39129;BME280;24864;49.940;19.770;2022-10-22T06:27:12;97856.16;;;6.23;100.00
39129;BME280;24864;49.940;19.770;2022-10-22T06:29:40;97852.31;;;6.33;100.00
39129;BME280;24864;49.940;19.770;2022-10-22T06:32:08;97856.38;;;6.56;100.00
39129;BME280;24864;49.940;19.770;2022-10-22T06:34:36;97865.78;;;6.59;100.00
39129;BME280;24864;49.940;19.770;2022-10-22T06:37:04;97878.00;;;6.74;100.00
39129;BME280;24864;49.940;19.770;2022-10-22T06:39:32;97886.38;;;6.90;100.00
39129;BME280;24864;49.940;19.770;2022-10-22T06:41:59;97879.75;;;7.08;100.00
39129;BME280;24864;49.940;19.770;2022-10-22T06:44:29;97897.16;;;7.29;100.00
39129;BME280;24864;49.940;19.770;2022-10-22T06:46:56;97890.56;;;7.38;100.00
39129;BME280;24864;49.940;19.770;2022-10-22T06:49:25;97903.69;;;7.36;100.00
39129;BME280;24864;49.940;19.770;2022-10-22T06:51:53;97904.31;;;7.33;100.00
39129;BME280;24864;49.940;19.770;2022-10-22T06:54:22;97911.81;;;7.36;100.00
39129;BME280;24864;49.940;19.770;2022-10-22T06:56:49;97913.66;;;7.45;100.00
39129;BME280;24864;49.940;19.770;2022-10-22T06:59:17;97918.66;;;7.43;100.00
39129;BME280;24864;49.940;19.770;2022-10-22T07:01:47;97933.75;;;7.52;100.00
39129;BME280;24864;49.940;19.770;2022-10-22T07:04:15;97928.84;;;7.46;100.00
39129;BME280;24864;49.940;19.770;2022-10-22T07:06:43;97931.34;;;7.51;100.00
39129;BME280;24864;49.940;19.770;2022-10-22T07:09:11;97945.22;;;7.28;100.00
39129;BME280;24864;49.940;19.770;2022-10-22T07:11:40;97942.25;;;7.12;100.00
39129;BME280;24864;49.940;19.770;2022-10-22T07:14:09;97933.09;;;6.87;100.00
39129;BME280;24864;49.940;19.770;2022-10-22T07:16:37;97916.50;;;6.97;100.00
39129;BME280;24864;49.940;19.770;2022-10-22T07:19:09;97928.25;;;7.01;100.00
39129;BME280;24864;49.940;19.770;2022-10-22T07:21:37;97917.66;;;7.17;100.00
39129;BME280;24864;49.940;19.770;2022-10-22T07:24:05;97908.03;;;7.29;100.00
39129;BME280;24864;49.940;19.770;2022-10-22T07:26:33;97899.03;;;7.37;100.00
39129;BME280;24864;49.940;19.770;2022-10-22T07:29:02;97916.22;;;7.71;100.00
39129;BME280;24864;49.940;19.770;2022-10-22T07:31:30;97930.47;;;7.89;100.00
39129;BME280;24864;49.940;19.770;2022-10-22T07:33:58;97943.44;;;8.04;100.00
39129;BME280;24864;49.940;19.770;2022-10-22T07:36:27;97940.13;;;8.20;100.00
39129;BME280;24864;49.940;19.770;2022-10-22T07:38:57;97931.75;;;8.25;100.00
39129;BME280;24864;49.940;19.770;2022-10-22T07:41:26;97934.38;;;8.34;100.00
39129;BME280;24864;49.940;19.770;2022-10-22T07:43:56;97931.47;;;8.39;100.00
39129;BME280;24864;49.940;19.770;2022-10-22T07:46:25;97922.47;;;8.47;100.00
39129;BME280;24864;49.940;19.770;2022-10-22T07:48:53;97948.16;;;8.50;100.00
39129;BME280;24864;49.940;19.770;2022-10-22T07:51:20;97945.00;;;8.48;100.00
39129;BME280;24864;49.940;19.770;2022-10-22T07:53:50;97898.47;;;8.28;100.00
39129;BME280;24864;49.940;19.770;2022-10-22T07:56:19;97913.56;;;8.59;100.00
39129;BME280;24864;49.940;19.770;2022-10-22T07:58:47;97910.38;;;8.70;100.00
39129;BME280;24864;49.940;19.770;2022-10-22T08:01:15;97906.78;;;8.65;100.00
39129;BME280;24864;49.940;19.770;2022-10-22T08:03:43;97910.75;;;8.68;100.00
39129;BME280;24864;49.940;19.770;2022-10-22T08:06:12;97910.84;;;8.72;100.00
39129;BME280;24864;49.940;19.770;2022-10-22T08:08:41;97911.88;;;8.79;100.00
39129;BME280;24864;49.940;19.770;2022-10-22T08:11:10;97908.63;;;8.86;100.00
39129;BME280;24864;49.940;19.770;2022-10-22T08:13:38;97922.09;;;8.82;100.00
39129;BME280;24864;49.940;19.770;2022-10-22T08:16:11;97913.84;;;8.91;100.00
39129;BME280;24864;49.940;19.770;2022-10-22T08:18:40;97909.28;;;8.95;100.00
39129;BME280;24864;49.940;19.770;2022-10-22T08:21:08;97924.25;;;9.02;100.00
39129;BME280;24864;49.940;19.770;2022-10-22T08:23:36;97920.41;;;9.15;100.00
39129;BME280;24864;49.940;19.770;2022-10-22T08:26:04;97933.56;;;9.25;100.00
39129;BME280;24864;49.940;19.770;2022-10-22T08:28:34;97948.50;;;9.31;100.00
39129;BME280;24864;49.940;19.770;2022-10-22T08:31:03;97945.34;;;9.29;100.00
39129;BME280;24864;49.940;19.770;2022-10-22T08:33:31;97950.34;;;9.40;100.00
39129;BME280;24864;49.940;19.770;2022-10-22T08:35:59;97950.69;;;9.38;100.00
39129;BME280;24864;49.940;19.770;2022-10-22T08:38:27;97930.38;;;9.36;100.00
39129;BME280;24864;49.940;19.770;2022-10-22T08:41:05;97943.88;;;9.32;100.00
39129;BME280;24864;49.940;19.770;2022-10-22T08:43:49;97953.63;;;9.33;100.00
39129;BME280;24864;49.940;19.770;2022-10-22T08:46:33;97964.28;;;9.38;100.00
39129;BME280;24864;49.940;19.770;2022-10-22T08:49:11;97954.41;;;9.21;100.00
39129;BME280;24864;49.940;19.770;2022-10-22T08:51:40;97966.66;;;9.40;100.00
39129;BME280;24864;49.940;19.770;2022-10-22T08:54:18;97974.59;;;9.45;100.00
39129;BME280;24864;49.940;19.770;2022-10-22T08:56:56;97973.94;;;9.48;100.00
39129;BME280;24864;49.940;19.770;2022-10-22T08:59:33;97952.28;;;9.39;100.00
39129;BME280;24864;49.940;19.770;2022-10-22T09:02:07;97955.22;;;9.46;100.00
39129;BME280;24864;49.940;19.770;2022-10-22T09:04:44;97955.78;;;9.52;100.00
39129;BME280;24864;49.940;19.770;2022-10-22T09:07:14;97946.59;;;9.57;100.00
39129;BME280;24864;49.940;19.770;2022-10-22T09:09:46;97928.53;;;9.64;100.00
39129;BME280;24864;49.940;19.770;2022-10-22T09:12:17;97929.19;;;9.74;100.00
39129;BME280;24864;49.940;19.770;2022-10-22T09:14:50;97923.72;;;9.86;100.00
39129;BME280;24864;49.940;19.770;2022-10-22T09:17:24;97923.94;;;9.93;100.00
39129;BME280;24864;49.940;19.770;2022-10-22T09:20:01;97937.75;;;10.01;100.00
39129;BME280;24864;49.940;19.770;2022-10-22T09:22:33;97953.75;;;10.02;100.00
39129;BME280;24864;49.940;19.770;2022-10-22T09:25:16;97951.44;;;10.17;100.00
39129;BME280;24864;49.940;19.770;2022-10-22T09:27:45;97947.84;;;10.41;100.00
39129;BME280;24864;49.940;19.770;2022-10-22T09:30:18;97946.38;;;10.43;100.00
39129;BME280;24864;49.940;19.770;2022-10-22T09:32:47;97949.16;;;10.59;100.00
39129;BME280;24864;49.940;19.770;2022-10-22T09:35:20;97946.75;;;10.58;100.00
39129;BME280;24864;49.940;19.770;2022-10-22T09:37:52;97929.78;;;10.65;100.00
39129;BME280;24864;49.940;19.770;2022-10-22T09:40:21;97933.28;;;10.49;100.00
39129;BME280;24864;49.940;19.770;2022-10-22T09:42:49;97927.56;;;10.54;100.00
39129;BME280;24864;49.940;19.770;2022-10-22T09:45:20;97933.41;;;10.69;100.00
39129;BME280;24864;49.940;19.770;2022-10-22T09:48:02;97938.34;;;10.63;100.00
39129;BME280;24864;49.940;19.770;2022-10-22T09:50:41;97941.47;;;10.65;100.00
39129;BME280;24864;49.940;19.770;2022-10-22T09:53:13;97942.28;;;10.66;100.00
39129;BME280;24864;49.940;19.770;2022-10-22T09:55:42;97941.13;;;10.67;100.00
39129;BME280;24864;49.940;19.770;2022-10-22T09:58:11;97935.25;;;10.65;100.00
39129;BME280;24864;49.940;19.770;2022-10-22T10:00:44;97940.31;;;10.50;100.00
39129;BME280;24864;49.940;19.770;2022-10-22T10:03:15;97927.03;;;10.20;100.00
39129;BME280;24864;49.940;19.770;2022-10-22T10:05:46;97939.88;;;10.36;100.00
39129;BME280;24864;49.940;19.770;2022-10-22T10:08:16;97934.16;;;10.37;100.00
39129;BME280;24864;49.940;19.770;2022-10-22T10:10:47;97927.22;;;10.27;100.00
39129;BME280;24864;49.940;19.770;2022-10-22T10:13:32;97938.31;;;10.35;100.00
39129;BME280;24864;49.940;19.770;2022-10-22T10:16:12;97945.13;;;10.28;100.00
39129;BME280;24864;49.940;19.770;2022-10-22T10:19:02;97960.69;;;10.00;100.00
39129;BME280;24864;49.940;19.770;2022-10-22T10:21:41;97964.97;;;10.13;100.00
39129;BME280;24864;49.940;19.770;2022-10-22T10:24:21;97960.41;;;10.17;100.00
39129;BME280;24864;49.940;19.770;2022-10-22T10:26:57;97949.59;;;10.21;100.00
39129;BME280;24864;49.940;19.770;2022-10-22T10:29:36;97956.09;;;10.16;100.00
39129;BME280;24864;49.940;19.770;2022-10-22T10:32:23;97948.31;;;10.02;100.00
39129;BME280;24864;49.940;19.770;2022-10-22T10:35:03;97960.72;;;9.87;100.00
39129;BME280;24864;49.940;19.770;2022-10-22T10:37:42;97957.28;;;9.90;100.00
39129;BME280;24864;49.940;19.770;2022-10-22T10:40:20;97954.72;;;9.81;100.00
39129;BME280;24864;49.940;19.770;2022-10-22T10:42:54;97955.31;;;9.75;100.00
39129;BME280;24864;49.940;19.770;2022-10-22T10:45:29;97954.59;;;9.78;100.00
39129;BME280;24864;49.940;19.770;2022-10-22T10:48:15;97956.09;;;9.75;100.00
39129;BME280;24864;49.940;19.770;2022-10-22T10:50:55;97956.78;;;9.72;100.00
39129;BME280;24864;49.940;19.770;2022-10-22T10:53:36;97952.13;;;9.73;100.00
39129;BME280;24864;49.940;19.770;2022-10-22T10:56:24;97950.75;;;9.79;100.00
39129;BME280;24864;49.940;19.770;2022-10-22T10:59:02;97949.13;;;9.90;100.00
39129;BME280;24864;49.940;19.770;2022-10-22T11:01:40;97950.81;;;9.95;100.00
39129;BME280;24864;49.940;19.770;2022-10-22T11:04:33;97937.69;;;9.85;100.00
39129;BME280;24864;49.940;19.770;2022-10-22T11:07:11;97952.16;;;10.01;100.00
39129;BME280;24864;49.940;19.770;2022-10-22T11:10:02;97952.72;;;10.07;100.00
39129;BME280;24864;49.940;19.770;2022-10-22T11:12:34;97955.56;;;10.10;100.00
39129;BME280;24864;49.940;19.770;2022-10-22T11:15:11;97959.09;;;9.99;100.00
39129;BME280;24864;49.940;19.770;2022-10-22T11:17:45;97956.13;;;10.04;100.00
39129;BME280;24864;49.940;19.770;2022-10-22T11:20:17;97940.38;;;9.97;100.00
39129;BME280;24864;49.940;19.770;2022-10-22T11:22:49;97949.09;;;10.03;100.00
39129;BME280;24864;49.940;19.770;2022-10-22T11:25:42;97948.53;;;10.09;100.00
39129;BME280;24864;49.940;19.770;2022-10-22T11:28:13;97952.28;;;10.05;100.00
39129;BME280;24864;49.940;19.770;2022-10-22T11:30:47;97953.88;;;10.06;100.00
39129;BME280;24864;49.940;19.770;2022-10-22T11:33:18;97950.00;;;10.07;100.00
39129;BME280;24864;49.940;19.770;2022-10-22T11:35:51;97948.63;;;10.13;100.00
39129;BME280;24864;49.940;19.770;2022-10-22T11:38:22;97942.13;;;10.18;100.00
39129;BME280;24864;49.940;19.770;2022-10-22T11:40:56;97938.81;;;10.24;100.00
39129;BME280;24864;49.940;19.770;2022-10-22T11:43:28;97933.34;;;10.24;100.00
39129;BME280;24864;49.940;19.770;2022-10-22T11:46:01;97927.66;;;10.29;100.00
39129;BME280;24864;49.940;19.770;2022-10-22T11:48:36;97918.09;;;10.36;100.00
39129;BME280;24864;49.940;19.770;2022-10-22T11:51:28;97896.50;;;10.43;100.00
39129;BME280;24864;49.940;19.770;2022-10-22T11:53:57;97904.59;;;10.39;100.00
39129;BME280;24864;49.940;19.770;2022-10-22T11:56:36;97894.53;;;10.27;100.00
39129;BME280;24864;49.940;19.770;2022-10-22T11:59:12;97912.44;;;10.28;100.00
39129;BME280;24864;49.940;19.770;2022-10-22T12:01:55;97901.44;;;10.25;100.00
39129;BME280;24864;49.940;19.770;2022-10-22T12:04:39;97898.88;;;10.16;100.00
39129;BME280;24864;49.940;19.770;2022-10-22T12:07:31;97894.81;;;10.10;100.00
39129;BME280;24864;49.940;19.770;2022-10-22T12:09:59;97897.28;;;10.15;100.00
39129;BME280;24864;49.940;19.770;2022-10-22T12:12:34;97898.63;;;10.21;100.00
39129;BME280;24864;49.940;19.770;2022-10-22T12:15:20;97898.75;;;10.12;100.00
39129;BME280;24864;49.940;19.770;2022-10-22T12:17:49;97904.47;;;10.07;100.00
39129;BME280;24864;49.940;19.770;2022-10-22T12:20:17;97875.84;;;9.85;100.00
39129;BME280;24864;49.940;19.770;2022-10-22T12:22:47;97898.03;;;10.00;100.00
39129;BME280;24864;49.940;19.770;2022-10-22T12:25:17;97899.16;;;9.99;100.00
39129;BME280;24864;49.940;19.770;2022-10-22T12:27:50;97900.75;;;10.00;100.00
39129;BME280;24864;49.940;19.770;2022-10-22T12:30:20;97900.75;;;10.00;100.00
39129;BME280;24864;49.940;19.770;2022-10-22T12:32:51;97910.84;;;9.99;100.00
39129;BME280;24864;49.940;19.770;2022-10-22T12:35:22;97897.09;;;10.08;100.00
39129;BME280;24864;49.940;19.770;2022-10-22T12:37:54;97901.16;;;10.14;100.00
39129;BME280;24864;49.940;19.770;2022-10-22T12:40:25;97882.56;;;10.04;100.00
39129;BME280;24864;49.940;19.770;2022-10-22T12:42:55;97889.81;;;10.12;100.00
39129;BME280;24864;49.940;19.770;2022-10-22T12:45:26;97891.41;;;10.13;100.00
39129;BME280;24864;49.940;19.770;2022-10-22T12:47:57;97873.72;;;10.07;100.00
39129;BME280;24864;49.940;19.770;2022-10-22T12:50:31;97892.72;;;10.19;100.00
39129;BME280;24864;49.940;19.770;2022-10-22T12:53:05;97902.94;;;10.22;100.00
39129;BME280;24864;49.940;19.770;2022-10-22T12:55:33;97900.66;;;10.24;100.00
39129;BME280;24864;49.940;19.770;2022-10-22T12:58:04;97898.38;;;10.26;100.00
39129;BME280;24864;49.940;19.770;2022-10-22T13:00:33;97899.16;;;10.27;100.00
39129;BME280;24864;49.940;19.770;2022-10-22T13:03:04;97888.47;;;10.34;100.00
39129;BME280;24864;49.940;19.770;2022-10-22T13:05:33;97894.81;;;10.38;100.00
39129;BME280;24864;49.940;19.770;2022-10-22T13:08:08;97892.22;;;10.29;100.00
39129;BME280;24864;49.940;19.770;2022-10-22T13:10:38;97910.38;;;10.38;100.00